sensor_id;sensor_type;location;lat;lon;timestamp;pressure;altitude;pressure_sealevel;temperature;humidity
9229;BME280;4649;42.644;23.284;2023-05-29T00:02:56;92684.94;;;11.36;100.00
9229;BME280;4649;42.644;23.284;2023-05-29T00:06:05;92706.00;;;11.54;100.00
9229;BME280;4649;42.644;23.284;2023-05-29T00:12:41;92732.09;;;11.86;100.00
9229;BME280;4649;42.644;23.284;2023-05-29T00:25:00;92846.22;;;12.71;100.00
9229;BME280;4649;42.644;23.284;2023-05-29T00:27:48;92846.25;;;12.65;100.00
9229;BME280;4649;42.644;23.284;2023-05-29T00:30:43;92703.31;;;11.78;100.00
9229;BME280;4649;42.644;23.284;2023-05-29T00:33:39;92799.34;;;12.46;100.00
9229;BME280;4649;42.644;23.284;2023-05-29T00:36:24;92902.28;;;13.16;100.00
9229;BME280;4649;42.644;23.284;2023-05-29T00:39:13;92902.09;;;13.14;100.00
9229;BME280;4649;42.644;23.284;2023-05-29T00:48:35;92704.06;;;12.02;100.00
9229;BME280;4649;42.644;23.284;2023-05-29T00:51:07;92696.09;;;12.10;100.00
9229;BME280;4649;42.644;23.284;2023-05-29T00:53:45;92764.25;;;12.48;100.00
9229;BME280;4649;42.644;23.284;2023-05-29T00:56:26;92837.66;;;13.09;100.00
9229;BME280;4649;42.644;23.284;2023-05-29T00:59:08;92866.59;;;13.25;100.00
9229;BME280;4649;42.644;23.284;2023-05-29T01:01:51;92767.66;;;12.54;100.00
9229;BME280;4649;42.644;23.284;2023-05-29T01:04:27;92691.19;;;12.08;100.00
9229;BME280;4649;42.644;23.284;2023-05-29T01:07:00;92760.75;;;12.53;100.00
9229;BME280;4649;42.644;23.284;2023-05-29T01:09:35;92877.56;;;13.19;100.00
9229;BME280;4649;42.644;23.284;2023-05-29T01:12:24;92694.47;;;11.77;100.00
9229;BME280;4649;42.644;23.284;2023-05-29T02:03:06;92764.31;;;12.19;100.00
9229;BME280;4649;42.644;23.284;2023-05-29T02:05:47;92761.09;;;12.20;100.00
9229;BME280;4649;42.644;23.284;2023-05-29T02:08:18;92698.28;;;11.87;100.00
9229;BME280;4649;42.644;23.284;2023-05-29T02:10:57;92882.47;;;13.21;100.00
9229;BME280;4649;42.644;23.284;2023-05-29T02:13:41;92799.59;;;12.67;100.00
9229;BME280;4649;42.644;23.284;2023-05-29T02:16:26;92808.94;;;12.71;100.00
9229;BME280;4649;42.644;23.284;2023-05-29T02:21:21;92706.22;;;12.09;100.00
9229;BME280;4649;42.644;23.284;2023-05-29T02:23:50;92856.41;;;13.12;100.00
9229;BME280;4649;42.644;23.284;2023-05-29T02:26:30;92815.25;;;13.03;100.00
9229;BME280;4649;42.644;23.284;2023-05-29T02:29:02;92711.00;;;12.21;100.00
9229;BME280;4649;42.644;23.284;2023-05-29T02:31:52;92673.25;;;11.76;100.00
9229;BME280;4649;42.644;23.284;2023-05-29T02:34:34;92806.50;;;12.68;100.00
9229;BME280;4649;42.644;23.284;2023-05-29T02:37:08;92695.13;;;11.83;100.00
9229;BME280;4649;42.644;23.284;2023-05-29T02:39:46;92781.56;;;12.21;100.00
9229;BME280;4649;42.644;23.284;2023-05-29T02:42:35;92690.94;;;11.58;100.00
9229;BME280;4649;42.644;23.284;2023-05-29T02:45:53;92843.84;;;12.62;100.00
9229;BME280;4649;42.644;23.284;2023-05-29T02:48:36;92852.75;;;12.86;100.00
9229;BME280;4649;42.644;23.284;2023-05-29T02:51:18;92751.25;;;12.17;100.00
9229;BME280;4649;42.644;23.284;2023-05-29T02:54:03;92738.47;;;12.13;100.00
9229;BME280;4649;42.644;23.284;2023-05-29T03:02:31;92838.69;;;12.58;100.00
9229;BME280;4649;42.644;23.284;2023-05-29T03:10:31;92876.09;;;12.94;100.00
9229;BME280;4649;42.644;23.284;2023-05-29T03:13:17;92675.97;;;11.52;100.00
9229;BME280;4649;42.644;23.284;2023-05-29T03:16:23;92861.66;;;12.81;100.00
9229;BME280;4649;42.644;23.284;2023-05-29T03:19:08;92915.09;;;13.21;100.00
9229;BME280;4649;42.644;23.284;2023-05-29T03:22:15;92701.41;;;11.73;100.00
9229;BME280;4649;42.644;23.284;2023-05-29T03:28:09;92818.19;;;12.81;100.00
9229;BME280;4649;42.644;23.284;2023-05-29T03:34:00;92826.34;;;12.81;100.00
9229;BME280;4649;42.644;23.284;2023-05-29T03:36:46;92834.94;;;12.85;100.00
9229;BME280;4649;42.644;23.284;2023-05-29T03:39:26;92674.47;;;12.04;100.00
9229;BME280;4649;42.644;23.284;2023-05-29T03:41:54;92855.28;;;13.21;100.00
9229;BME280;4649;42.644;23.284;2023-05-29T03:44:28;92718.72;;;12.17;100.00
9229;BME280;4649;42.644;23.284;2023-05-29T03:47:08;92800.44;;;12.80;100.00
9229;BME280;4649;42.644;23.284;2023-05-29T03:49:38;92801.00;;;12.97;100.00
9229;BME280;4649;42.644;23.284;2023-05-29T03:52:39;92810.00;;;12.86;100.00
9229;BME280;4649;42.644;23.284;2023-05-29T03:55:20;92735.56;;;12.11;100.00
9229;BME280;4649;42.644;23.284;2023-05-29T03:57:50;92707.63;;;11.92;100.00
9229;BME280;4649;42.644;23.284;2023-05-29T04:00:41;92899.00;;;13.23;100.00
9229;BME280;4649;42.644;23.284;2023-05-29T04:03:09;92795.34;;;12.47;100.00
9229;BME280;4649;42.644;23.284;2023-05-29T04:05:36;92940.31;;;13.39;100.00
9229;BME280;4649;42.644;23.284;2023-05-29T04:08:27;92937.94;;;13.54;100.00
9229;BME280;4649;42.644;23.284;2023-05-29T04:10:57;92934.38;;;13.41;100.00
9229;BME280;4649;42.644;23.284;2023-05-29T04:16:51;92946.38;;;13.51;100.00
9229;BME280;4649;42.644;23.284;2023-05-29T04:19:29;92832.38;;;12.74;100.00
9229;BME280;4649;42.644;23.284;2023-05-29T04:22:05;92866.59;;;13.06;100.00
9229;BME280;4649;42.644;23.284;2023-05-29T04:24:34;92693.94;;;12.03;100.00
9229;BME280;4649;42.644;23.284;2023-05-29T04:39:12;92829.91;;;13.37;100.00
9229;BME280;4649;42.644;23.284;2023-05-29T04:41:39;92909.53;;;14.05;100.00
9229;BME280;4649;42.644;23.284;2023-05-29T05:36:34;92915.88;;;18.90;98.52
9229;BME280;4649;42.644;23.284;2023-05-29T05:42:12;92952.63;;;18.79;96.67
9229;BME280;4649;42.644;23.284;2023-05-29T06:07:21;92840.19;;;17.92;97.77
9229;BME280;4649;42.644;23.284;2023-05-29T06:10:29;92995.09;;;19.60;97.21
9229;BME280;4649;42.644;23.284;2023-05-29T06:16:53;93004.25;;;19.77;92.81
9229;BME280;4649;42.644;23.284;2023-05-29T06:19:33;92951.22;;;19.53;91.99
9229;BME280;4649;42.644;23.284;2023-05-29T06:22:19;93002.25;;;19.63;91.02
9229;BME280;4649;42.644;23.284;2023-05-29T06:25:10;93019.47;;;19.78;89.16
9229;BME280;4649;42.644;23.284;2023-05-29T06:27:47;93013.97;;;19.93;88.51
9229;BME280;4649;42.644;23.284;2023-05-29T06:30:28;92877.81;;;18.56;91.86
9229;BME280;4649;42.644;23.284;2023-05-29T06:33:13;92913.13;;;18.82;92.32
9229;BME280;4649;42.644;23.284;2023-05-29T06:35:49;93014.16;;;19.51;92.21
9229;BME280;4649;42.644;23.284;2023-05-29T06:38:25;93013.59;;;19.45;94.17
9229;BME280;4649;42.644;23.284;2023-05-29T06:41:15;92903.78;;;18.63;92.42
9229;BME280;4649;42.644;23.284;2023-05-29T06:44:14;92909.41;;;18.42;93.86
9229;BME280;4649;42.644;23.284;2023-05-29T07:19:21;92837.78;;;18.61;91.54
9229;BME280;4649;42.644;23.284;2023-05-29T07:22:08;92925.44;;;19.26;88.47
9229;BME280;4649;42.644;23.284;2023-05-29T07:27:42;92959.44;;;19.38;91.32
9229;BME280;4649;42.644;23.284;2023-05-29T07:30:23;93023.13;;;19.81;89.59
9229;BME280;4649;42.644;23.284;2023-05-29T07:33:23;93024.59;;;19.74;90.67
9229;BME280;4649;42.644;23.284;2023-05-29T07:36:14;92983.41;;;19.74;87.80
9229;BME280;4649;42.644;23.284;2023-05-29T07:39:02;92962.69;;;19.73;90.42
9229;BME280;4649;42.644;23.284;2023-05-29T07:41:57;93030.06;;;20.73;86.78
9229;BME280;4649;42.644;23.284;2023-05-29T07:44:45;93022.28;;;21.26;83.38
9229;BME280;4649;42.644;23.284;2023-05-29T07:47:38;92980.56;;;21.29;74.15
9229;BME280;4649;42.644;23.284;2023-05-29T07:50:24;93026.13;;;21.54;73.13
9229;BME280;4649;42.644;23.284;2023-05-29T07:53:10;92878.91;;;20.51;73.33
9229;BME280;4649;42.644;23.284;2023-05-29T07:55:47;93014.78;;;21.19;74.10
9229;BME280;4649;42.644;23.284;2023-05-29T07:58:33;93013.72;;;21.14;71.76
9229;BME280;4649;42.644;23.284;2023-05-29T08:01:16;92973.66;;;20.96;74.03
9229;BME280;4649;42.644;23.284;2023-05-29T08:04:01;92972.16;;;21.27;70.03
9229;BME280;4649;42.644;23.284;2023-05-29T08:06:43;92818.69;;;20.62;72.76
9229;BME280;4649;42.644;23.284;2023-05-29T08:09:32;93015.09;;;22.54;67.44
9229;BME280;4649;42.644;23.284;2023-05-29T08:12:05;92975.53;;;22.42;67.64
9229;BME280;4649;42.644;23.284;2023-05-29T08:14:34;92818.88;;;21.30;64.45
9229;BME280;4649;42.644;23.284;2023-05-29T08:17:41;93024.41;;;22.24;63.80
9229;BME280;4649;42.644;23.284;2023-05-29T08:20:24;93018.97;;;21.76;67.55
9229;BME280;4649;42.644;23.284;2023-05-29T08:23:09;93021.00;;;21.51;70.32
9229;BME280;4649;42.644;23.284;2023-05-29T08:25:44;93032.16;;;21.29;70.60
9229;BME280;4649;42.644;23.284;2023-05-29T08:28:25;93029.44;;;21.21;72.06
9229;BME280;4649;42.644;23.284;2023-05-29T08:30:57;93032.69;;;21.35;67.91
9229;BME280;4649;42.644;23.284;2023-05-29T08:33:43;92993.09;;;21.23;68.89
9229;BME280;4649;42.644;23.284;2023-05-29T08:36:16;93002.78;;;21.31;69.52
9229;BME280;4649;42.644;23.284;2023-05-29T08:38:54;93024.84;;;21.24;67.99
9229;BME280;4649;42.644;23.284;2023-05-29T08:41:34;92915.97;;;20.42;67.72
9229;BME280;4649;42.644;23.284;2023-05-29T08:44:26;92992.97;;;21.13;65.81
9229;BME280;4649;42.644;23.284;2023-05-29T08:47:01;92908.72;;;20.93;66.51
9229;BME280;4649;42.644;23.284;2023-05-29T08:49:42;93030.78;;;21.69;65.28
9229;BME280;4649;42.644;23.284;2023-05-29T08:52:22;93020.03;;;21.80;65.51
9229;BME280;4649;42.644;23.284;2023-05-29T08:58:22;92958.81;;;21.65;63.38
9229;BME280;4649;42.644;23.284;2023-05-29T09:01:12;93014.81;;;22.25;62.29
9229;BME280;4649;42.644;23.284;2023-05-29T09:03:52;93012.41;;;22.46;65.26
9229;BME280;4649;42.644;23.284;2023-05-29T09:06:28;93014.84;;;22.59;64.61
9229;BME280;4649;42.644;23.284;2023-05-29T09:09:13;92973.16;;;22.38;62.51
9229;BME280;4649;42.644;23.284;2023-05-29T09:11:57;92861.50;;;21.96;64.29
9229;BME280;4649;42.644;23.284;2023-05-29T09:14:44;92899.03;;;22.25;60.42
9229;BME280;4649;42.644;23.284;2023-05-29T09:17:18;92936.50;;;22.28;57.40
9229;BME280;4649;42.644;23.284;2023-05-29T09:19:51;93005.25;;;22.77;61.46
9229;BME280;4649;42.644;23.284;2023-05-29T09:22:20;92956.03;;;22.40;59.94
9229;BME280;4649;42.644;23.284;2023-05-29T09:24:48;92915.09;;;21.86;59.85
9229;BME280;4649;42.644;23.284;2023-05-29T09:27:22;92941.47;;;21.55;58.94
9229;BME280;4649;42.644;23.284;2023-05-29T09:29:56;92884.00;;;21.35;60.95
9229;BME280;4649;42.644;23.284;2023-05-29T09:32:40;92991.81;;;22.13;59.13
9229;BME280;4649;42.644;23.284;2023-05-29T09:35:14;92951.94;;;21.08;61.22
9229;BME280;4649;42.644;23.284;2023-05-29T09:37:49;92988.34;;;21.47;63.17
9229;BME280;4649;42.644;23.284;2023-05-29T09:40:24;92946.22;;;20.82;63.13
9229;BME280;4649;42.644;23.284;2023-05-29T09:43:13;92962.38;;;21.58;62.06
9229;BME280;4649;42.644;23.284;2023-05-29T09:46:06;92842.16;;;21.12;59.16
9229;BME280;4649;42.644;23.284;2023-05-29T09:49:07;92967.25;;;21.18;63.94
9229;BME280;4649;42.644;23.284;2023-05-29T09:51:56;92859.88;;;21.76;58.29
9229;BME280;4649;42.644;23.284;2023-05-29T09:54:34;92800.75;;;21.60;56.54
9229;BME280;4649;42.644;23.284;2023-05-29T09:57:18;92968.31;;;22.72;56.80
9229;BME280;4649;42.644;23.284;2023-05-29T10:00:05;92965.22;;;22.85;58.91
9229;BME280;4649;42.644;23.284;2023-05-29T10:02:48;92965.97;;;22.69;58.03
9229;BME280;4649;42.644;23.284;2023-05-29T10:05:27;92933.03;;;22.28;56.76
9229;BME280;4649;42.644;23.284;2023-05-29T10:07:58;92969.41;;;22.09;56.72
9229;BME280;4649;42.644;23.284;2023-05-29T10:10:34;92927.47;;;21.77;55.42
9229;BME280;4649;42.644;23.284;2023-05-29T10:13:27;92846.72;;;21.34;56.04
9229;BME280;4649;42.644;23.284;2023-05-29T10:16:10;92920.38;;;21.01;58.22
9229;BME280;4649;42.644;23.284;2023-05-29T10:22:26;92958.63;;;20.90;61.56
9229;BME280;4649;42.644;23.284;2023-05-29T10:25:09;92980.63;;;20.58;63.62
9229;BME280;4649;42.644;23.284;2023-05-29T10:27:50;92838.25;;;20.10;60.48
9229;BME280;4649;42.644;23.284;2023-05-29T10:30:29;92881.47;;;20.49;61.38
9229;BME280;4649;42.644;23.284;2023-05-29T10:33:44;92960.16;;;20.44;62.22
9229;BME280;4649;42.644;23.284;2023-05-29T10:36:30;92954.31;;;20.72;62.75
9229;BME280;4649;42.644;23.284;2023-05-29T10:39:23;92955.75;;;20.41;62.71
9229;BME280;4649;42.644;23.284;2023-05-29T10:55:04;92753.78;;;21.08;56.30
9229;BME280;4649;42.644;23.284;2023-05-29T10:57:34;92887.75;;;22.14;58.61
9229;BME280;4649;42.644;23.284;2023-05-29T11:00:11;92921.41;;;22.29;57.48
9229;BME280;4649;42.644;23.284;2023-05-29T11:02:55;92863.03;;;21.15;58.33
9229;BME280;4649;42.644;23.284;2023-05-29T11:50:21;92845.56;;;20.15;80.63
9229;BME280;4649;42.644;23.284;2023-05-29T11:52:56;92835.75;;;19.97;81.08
9229;BME280;4649;42.644;23.284;2023-05-29T16:56:47;92904.56;;;17.78;96.52
9229;BME280;4649;42.644;23.284;2023-05-29T16:59:34;92828.69;;;16.88;97.96
9229;BME280;4649;42.644;23.284;2023-05-29T18:33:29;92985.56;;;15.15;100.00
9229;BME280;4649;42.644;23.284;2023-05-29T18:43:18;93000.34;;;14.75;100.00
9229;BME280;4649;42.644;23.284;2023-05-29T18:46:01;92834.28;;;13.58;100.00
9229;BME280;4649;42.644;23.284;2023-05-29T19:35:16;93071.50;;;15.22;100.00
9229;BME280;4649;42.644;23.284;2023-05-29T19:37:59;92844.00;;;13.72;100.00
9229;BME280;4649;42.644;23.284;2023-05-29T22:14:46;92816.22;;;13.60;100.00
